sensor_id;sensor_type;location;lat;lon;timestamp;P1;durP1;ratioP1;P2;durP2;ratioP2
12519;SDS011;6325;49.540;8.364;2022-10-16T00:00:38;0.90;;;0.90;;
12519;SDS011;6325;49.540;8.364;2022-10-16T00:03:07;2.00;;;1.10;;
12519;SDS011;6325;49.540;8.364;2022-10-16T00:05:37;1.00;;;1.00;;
12519;SDS011;6325;49.540;8.364;2022-10-16T00:08:05;1.20;;;1.10;;
12519;SDS011;6325;49.540;8.364;2022-10-16T00:10:33;2.50;;;1.30;;
12519;SDS011;6325;49.540;8.364;2022-10-16T00:13:03;4.10;;;1.40;;
12519;SDS011;6325;49.540;8.364;2022-10-16T00:15:32;1.30;;;1.30;;
12519;SDS011;6325;49.540;8.364;2022-10-16T00:18:02;1.17;;;1.17;;
12519;SDS011;6325;49.540;8.364;2022-10-16T00:20:30;1.00;;;1.00;;
12519;SDS011;6325;49.540;8.364;2022-10-16T00:23:01;0.98;;;0.98;;
12519;SDS011;6325;49.540;8.364;2022-10-16T00:25:29;0.90;;;0.90;;
12519;SDS011;6325;49.540;8.364;2022-10-16T00:27:57;1.10;;;1.10;;
12519;SDS011;6325;49.540;8.364;2022-10-16T00:30:26;1.08;;;1.08;;
12519;SDS011;6325;49.540;8.364;2022-10-16T00:32:54;0.93;;;0.93;;
12519;SDS011;6325;49.540;8.364;2022-10-16T00:35:21;0.82;;;0.82;;
12519;SDS011;6325;49.540;8.364;2022-10-16T00:37:48;0.80;;;0.80;;
12519;SDS011;6325;49.540;8.364;2022-10-16T00:40:15;0.90;;;0.90;;
12519;SDS011;6325;49.540;8.364;2022-10-16T00:42:42;0.90;;;0.90;;
12519;SDS011;6325;49.540;8.364;2022-10-16T00:45:09;0.90;;;0.90;;
12519;SDS011;6325;49.540;8.364;2022-10-16T00:47:38;0.80;;;0.80;;
12519;SDS011;6325;49.540;8.364;2022-10-16T00:50:11;1.60;;;0.98;;
12519;SDS011;6325;49.540;8.364;2022-10-16T00:52:43;1.10;;;0.88;;
12519;SDS011;6325;49.540;8.364;2022-10-16T00:55:13;1.00;;;1.00;;
12519;SDS011;6325;49.540;8.364;2022-10-16T00:57:40;1.10;;;1.10;;
12519;SDS011;6325;49.540;8.364;2022-10-16T01:00:09;1.20;;;1.10;;
12519;SDS011;6325;49.540;8.364;2022-10-16T01:02:39;2.10;;;1.10;;
12519;SDS011;6325;49.540;8.364;2022-10-16T01:05:06;0.90;;;0.90;;
12519;SDS011;6325;49.540;8.364;2022-10-16T01:07:36;1.25;;;1.17;;
12519;SDS011;6325;49.540;8.364;2022-10-16T01:10:13;1.20;;;1.20;;
12519;SDS011;6325;49.540;8.364;2022-10-16T01:12:47;1.20;;;1.20;;
12519;SDS011;6325;49.540;8.364;2022-10-16T01:15:18;1.23;;;1.20;;
12519;SDS011;6325;49.540;8.364;2022-10-16T01:17:53;1.10;;;1.00;;
12519;SDS011;6325;49.540;8.364;2022-10-16T01:20:27;1.67;;;1.30;;
12519;SDS011;6325;49.540;8.364;2022-10-16T01:23:08;1.20;;;1.20;;
12519;SDS011;6325;49.540;8.364;2022-10-16T01:25:59;1.38;;;1.30;;
12519;SDS011;6325;49.540;8.364;2022-10-16T01:28:38;1.40;;;1.30;;
12519;SDS011;6325;49.540;8.364;2022-10-16T01:31:08;1.40;;;1.40;;
12519;SDS011;6325;49.540;8.364;2022-10-16T01:33:41;1.30;;;1.20;;
12519;SDS011;6325;49.540;8.364;2022-10-16T01:36:13;1.48;;;1.30;;
12519;SDS011;6325;49.540;8.364;2022-10-16T01:38:42;1.30;;;1.30;;
12519;SDS011;6325;49.540;8.364;2022-10-16T01:41:14;1.20;;;1.20;;
12519;SDS011;6325;49.540;8.364;2022-10-16T01:43:47;1.20;;;1.20;;
12519;SDS011;6325;49.540;8.364;2022-10-16T01:46:18;1.20;;;1.20;;
12519;SDS011;6325;49.540;8.364;2022-10-16T01:48:47;1.30;;;1.30;;
12519;SDS011;6325;49.540;8.364;2022-10-16T01:51:16;1.38;;;1.27;;
12519;SDS011;6325;49.540;8.364;2022-10-16T01:53:46;1.33;;;1.33;;
12519;SDS011;6325;49.540;8.364;2022-10-16T01:56:17;1.27;;;1.27;;
12519;SDS011;6325;49.540;8.364;2022-10-16T01:58:48;1.10;;;1.10;;
12519;SDS011;6325;49.540;8.364;2022-10-16T02:01:19;1.75;;;1.00;;
12519;SDS011;6325;49.540;8.364;2022-10-16T02:03:50;1.13;;;1.13;;
12519;SDS011;6325;49.540;8.364;2022-10-16T02:06:19;1.30;;;1.30;;
12519;SDS011;6325;49.540;8.364;2022-10-16T02:08:47;1.30;;;1.20;;
12519;SDS011;6325;49.540;8.364;2022-10-16T02:11:14;1.10;;;1.10;;
12519;SDS011;6325;49.540;8.364;2022-10-16T02:13:42;1.27;;;1.27;;
12519;SDS011;6325;49.540;8.364;2022-10-16T02:16:14;1.50;;;1.40;;
12519;SDS011;6325;49.540;8.364;2022-10-16T02:18:41;1.50;;;1.40;;
12519;SDS011;6325;49.540;8.364;2022-10-16T02:21:13;1.30;;;1.30;;
12519;SDS011;6325;49.540;8.364;2022-10-16T02:23:49;1.40;;;1.30;;
12519;SDS011;6325;49.540;8.364;2022-10-16T02:26:23;1.50;;;1.50;;
12519;SDS011;6325;49.540;8.364;2022-10-16T02:28:55;1.38;;;1.27;;
12519;SDS011;6325;49.540;8.364;2022-10-16T02:31:31;1.80;;;1.40;;
12519;SDS011;6325;49.540;8.364;2022-10-16T02:34:01;1.50;;;1.50;;
12519;SDS011;6325;49.540;8.364;2022-10-16T02:36:31;1.40;;;1.40;;
12519;SDS011;6325;49.540;8.364;2022-10-16T02:39:00;1.30;;;1.30;;
12519;SDS011;6325;49.540;8.364;2022-10-16T02:41:28;1.60;;;1.50;;
12519;SDS011;6325;49.540;8.364;2022-10-16T02:43:56;2.60;;;1.30;;
12519;SDS011;6325;49.540;8.364;2022-10-16T02:46:26;1.25;;;1.25;;
12519;SDS011;6325;49.540;8.364;2022-10-16T02:48:54;1.30;;;1.17;;
12519;SDS011;6325;49.540;8.364;2022-10-16T02:51:21;1.70;;;1.40;;
12519;SDS011;6325;49.540;8.364;2022-10-16T02:53:48;1.30;;;1.30;;
12519;SDS011;6325;49.540;8.364;2022-10-16T02:56:15;1.63;;;1.20;;
12519;SDS011;6325;49.540;8.364;2022-10-16T02:58:43;1.25;;;1.20;;
12519;SDS011;6325;49.540;8.364;2022-10-16T03:01:09;1.20;;;1.10;;
12519;SDS011;6325;49.540;8.364;2022-10-16T03:03:37;1.20;;;1.10;;
12519;SDS011;6325;49.540;8.364;2022-10-16T03:06:05;2.70;;;1.33;;
12519;SDS011;6325;49.540;8.364;2022-10-16T03:08:32;1.30;;;1.20;;
12519;SDS011;6325;49.540;8.364;2022-10-16T03:11:00;1.48;;;1.20;;
12519;SDS011;6325;49.540;8.364;2022-10-16T03:13:27;1.52;;;1.00;;
12519;SDS011;6325;49.540;8.364;2022-10-16T03:15:54;0.93;;;0.93;;
12519;SDS011;6325;49.540;8.364;2022-10-16T03:18:21;1.10;;;1.10;;
12519;SDS011;6325;49.540;8.364;2022-10-16T03:20:47;1.30;;;1.20;;
12519;SDS011;6325;49.540;8.364;2022-10-16T03:23:16;1.00;;;1.00;;
12519;SDS011;6325;49.540;8.364;2022-10-16T03:25:42;1.63;;;1.10;;
12519;SDS011;6325;49.540;8.364;2022-10-16T03:28:09;1.20;;;1.10;;
12519;SDS011;6325;49.540;8.364;2022-10-16T03:30:36;1.07;;;1.00;;
12519;SDS011;6325;49.540;8.364;2022-10-16T03:33:04;1.00;;;1.00;;
12519;SDS011;6325;49.540;8.364;2022-10-16T03:35:31;1.25;;;1.00;;
12519;SDS011;6325;49.540;8.364;2022-10-16T03:37:58;1.05;;;0.98;;
12519;SDS011;6325;49.540;8.364;2022-10-16T03:40:27;1.10;;;1.10;;
12519;SDS011;6325;49.540;8.364;2022-10-16T03:42:53;1.60;;;1.20;;
12519;SDS011;6325;49.540;8.364;2022-10-16T03:45:22;1.10;;;1.10;;
12519;SDS011;6325;49.540;8.364;2022-10-16T03:47:49;1.20;;;1.00;;
12519;SDS011;6325;49.540;8.364;2022-10-16T03:50:16;1.10;;;1.00;;
12519;SDS011;6325;49.540;8.364;2022-10-16T03:52:44;0.80;;;0.80;;
12519;SDS011;6325;49.540;8.364;2022-10-16T03:55:11;1.20;;;1.00;;
12519;SDS011;6325;49.540;8.364;2022-10-16T03:57:39;0.83;;;0.83;;
12519;SDS011;6325;49.540;8.364;2022-10-16T04:00:06;0.95;;;0.90;;
12519;SDS011;6325;49.540;8.364;2022-10-16T04:02:34;1.00;;;1.00;;
12519;SDS011;6325;49.540;8.364;2022-10-16T04:05:00;1.10;;;1.05;;
12519;SDS011;6325;49.540;8.364;2022-10-16T04:07:27;1.00;;;1.00;;
12519;SDS011;6325;49.540;8.364;2022-10-16T04:09:54;1.02;;;0.93;;
12519;SDS011;6325;49.540;8.364;2022-10-16T04:12:23;1.10;;;1.00;;
12519;SDS011;6325;49.540;8.364;2022-10-16T04:14:52;1.00;;;1.00;;
12519;SDS011;6325;49.540;8.364;2022-10-16T04:17:18;1.00;;;1.00;;
12519;SDS011;6325;49.540;8.364;2022-10-16T04:19:45;0.95;;;0.93;;
12519;SDS011;6325;49.540;8.364;2022-10-16T04:22:12;1.10;;;1.10;;
12519;SDS011;6325;49.540;8.364;2022-10-16T04:24:39;1.10;;;1.10;;
12519;SDS011;6325;49.540;8.364;2022-10-16T04:27:06;1.13;;;1.10;;
12519;SDS011;6325;49.540;8.364;2022-10-16T04:29:33;1.00;;;1.00;;
12519;SDS011;6325;49.540;8.364;2022-10-16T04:32:02;1.00;;;1.00;;
12519;SDS011;6325;49.540;8.364;2022-10-16T04:34:28;1.23;;;1.10;;
12519;SDS011;6325;49.540;8.364;2022-10-16T04:36:55;1.40;;;1.30;;
12519;SDS011;6325;49.540;8.364;2022-10-16T04:39:22;1.80;;;1.70;;
12519;SDS011;6325;49.540;8.364;2022-10-16T04:41:49;1.92;;;1.83;;
12519;SDS011;6325;49.540;8.364;2022-10-16T04:44:16;2.40;;;1.93;;
12519;SDS011;6325;49.540;8.364;2022-10-16T04:46:43;1.70;;;1.60;;
12519;SDS011;6325;49.540;8.364;2022-10-16T04:49:11;1.77;;;1.67;;
12519;SDS011;6325;49.540;8.364;2022-10-16T04:51:38;1.70;;;1.60;;
12519;SDS011;6325;49.540;8.364;2022-10-16T04:54:05;1.58;;;1.58;;
12519;SDS011;6325;49.540;8.364;2022-10-16T04:56:32;1.30;;;1.30;;
12519;SDS011;6325;49.540;8.364;2022-10-16T04:59:05;1.20;;;1.20;;
12519;SDS011;6325;49.540;8.364;2022-10-16T05:01:31;1.10;;;1.10;;
12519;SDS011;6325;49.540;8.364;2022-10-16T05:03:58;1.10;;;1.10;;
12519;SDS011;6325;49.540;8.364;2022-10-16T05:06:27;1.10;;;1.10;;
12519;SDS011;6325;49.540;8.364;2022-10-16T05:08:54;1.10;;;1.10;;
12519;SDS011;6325;49.540;8.364;2022-10-16T05:11:20;1.10;;;1.10;;
12519;SDS011;6325;49.540;8.364;2022-10-16T05:13:47;1.20;;;1.20;;
12519;SDS011;6325;49.540;8.364;2022-10-16T05:16:14;1.40;;;1.30;;
12519;SDS011;6325;49.540;8.364;2022-10-16T05:18:41;1.13;;;1.13;;
12519;SDS011;6325;49.540;8.364;2022-10-16T05:21:08;1.90;;;1.50;;
12519;SDS011;6325;49.540;8.364;2022-10-16T05:23:37;2.78;;;1.60;;
12519;SDS011;6325;49.540;8.364;2022-10-16T05:26:04;1.77;;;1.67;;
12519;SDS011;6325;49.540;8.364;2022-10-16T05:28:31;1.85;;;1.75;;
12519;SDS011;6325;49.540;8.364;2022-10-16T05:30:58;1.70;;;1.60;;
12519;SDS011;6325;49.540;8.364;2022-10-16T05:33:25;1.85;;;1.75;;
12519;SDS011;6325;49.540;8.364;2022-10-16T05:35:52;2.00;;;1.80;;
12519;SDS011;6325;49.540;8.364;2022-10-16T05:38:19;4.70;;;2.95;;
12519;SDS011;6325;49.540;8.364;2022-10-16T05:40:51;4.37;;;2.80;;
12519;SDS011;6325;49.540;8.364;2022-10-16T05:43:19;4.57;;;3.78;;
12519;SDS011;6325;49.540;8.364;2022-10-16T05:45:53;7.72;;;4.93;;
12519;SDS011;6325;49.540;8.364;2022-10-16T05:48:20;5.70;;;3.90;;
12519;SDS011;6325;49.540;8.364;2022-10-16T05:50:47;3.83;;;3.03;;
12519;SDS011;6325;49.540;8.364;2022-10-16T05:53:14;3.20;;;1.85;;
12519;SDS011;6325;49.540;8.364;2022-10-16T05:55:41;2.00;;;1.90;;
12519;SDS011;6325;49.540;8.364;2022-10-16T05:58:10;2.25;;;2.10;;
12519;SDS011;6325;49.540;8.364;2022-10-16T06:00:37;2.05;;;1.85;;
12519;SDS011;6325;49.540;8.364;2022-10-16T06:03:04;1.80;;;1.70;;
12519;SDS011;6325;49.540;8.364;2022-10-16T06:05:31;2.15;;;1.88;;
12519;SDS011;6325;49.540;8.364;2022-10-16T06:07:58;1.80;;;1.70;;
12519;SDS011;6325;49.540;8.364;2022-10-16T06:10:25;2.20;;;1.88;;
12519;SDS011;6325;49.540;8.364;2022-10-16T06:12:54;1.80;;;1.70;;
12519;SDS011;6325;49.540;8.364;2022-10-16T06:15:22;1.77;;;1.67;;
12519;SDS011;6325;49.540;8.364;2022-10-16T06:17:48;2.00;;;1.90;;
12519;SDS011;6325;49.540;8.364;2022-10-16T06:20:15;2.20;;;2.00;;
12519;SDS011;6325;49.540;8.364;2022-10-16T06:22:42;1.95;;;1.75;;
12519;SDS011;6325;49.540;8.364;2022-10-16T06:25:09;1.77;;;1.67;;
12519;SDS011;6325;49.540;8.364;2022-10-16T06:27:36;1.65;;;1.55;;
12519;SDS011;6325;49.540;8.364;2022-10-16T06:30:05;1.30;;;1.30;;
12519;SDS011;6325;49.540;8.364;2022-10-16T06:32:34;2.88;;;1.70;;
12519;SDS011;6325;49.540;8.364;2022-10-16T06:35:01;1.70;;;1.60;;
12519;SDS011;6325;49.540;8.364;2022-10-16T06:37:28;1.60;;;1.50;;
12519;SDS011;6325;49.540;8.364;2022-10-16T06:39:55;1.50;;;1.50;;
12519;SDS011;6325;49.540;8.364;2022-10-16T06:42:22;1.50;;;1.40;;
12519;SDS011;6325;49.540;8.364;2022-10-16T06:44:49;1.27;;;1.27;;
12519;SDS011;6325;49.540;8.364;2022-10-16T06:47:15;1.40;;;1.30;;
12519;SDS011;6325;49.540;8.364;2022-10-16T06:49:44;1.23;;;1.23;;
12519;SDS011;6325;49.540;8.364;2022-10-16T06:52:10;1.60;;;1.50;;
12519;SDS011;6325;49.540;8.364;2022-10-16T06:54:37;1.52;;;1.52;;
12519;SDS011;6325;49.540;8.364;2022-10-16T06:57:04;1.40;;;1.40;;
12519;SDS011;6325;49.540;8.364;2022-10-16T06:59:31;1.40;;;1.30;;
12519;SDS011;6325;49.540;8.364;2022-10-16T07:01:58;1.45;;;1.40;;
12519;SDS011;6325;49.540;8.364;2022-10-16T07:04:25;1.40;;;1.40;;
12519;SDS011;6325;49.540;8.364;2022-10-16T07:06:53;1.40;;;1.30;;
12519;SDS011;6325;49.540;8.364;2022-10-16T07:09:20;1.40;;;1.30;;
12519;SDS011;6325;49.540;8.364;2022-10-16T07:11:46;2.00;;;1.42;;
12519;SDS011;6325;49.540;8.364;2022-10-16T07:14:15;1.52;;;1.50;;
12519;SDS011;6325;49.540;8.364;2022-10-16T07:16:42;1.52;;;1.50;;
12519;SDS011;6325;49.540;8.364;2022-10-16T07:19:09;1.70;;;1.60;;
12519;SDS011;6325;49.540;8.364;2022-10-16T07:21:38;2.22;;;1.60;;
12519;SDS011;6325;49.540;8.364;2022-10-16T07:24:09;1.77;;;1.67;;
12519;SDS011;6325;49.540;8.364;2022-10-16T07:26:38;2.95;;;1.90;;
12519;SDS011;6325;49.540;8.364;2022-10-16T07:29:06;1.80;;;1.70;;
12519;SDS011;6325;49.540;8.364;2022-10-16T07:31:37;2.17;;;1.55;;
12519;SDS011;6325;49.540;8.364;2022-10-16T07:34:05;1.80;;;1.70;;
12519;SDS011;6325;49.540;8.364;2022-10-16T07:36:32;1.80;;;1.63;;
12519;SDS011;6325;49.540;8.364;2022-10-16T07:38:59;1.40;;;1.40;;
12519;SDS011;6325;49.540;8.364;2022-10-16T07:41:34;1.83;;;1.73;;
12519;SDS011;6325;49.540;8.364;2022-10-16T07:44:03;1.77;;;1.67;;
12519;SDS011;6325;49.540;8.364;2022-10-16T07:46:32;1.50;;;1.50;;
12519;SDS011;6325;49.540;8.364;2022-10-16T07:49:01;1.48;;;1.38;;
12519;SDS011;6325;49.540;8.364;2022-10-16T07:51:30;1.60;;;1.50;;
12519;SDS011;6325;49.540;8.364;2022-10-16T07:53:57;1.60;;;1.50;;
12519;SDS011;6325;49.540;8.364;2022-10-16T07:56:24;2.38;;;2.00;;
12519;SDS011;6325;49.540;8.364;2022-10-16T07:58:52;2.03;;;1.92;;
12519;SDS011;6325;49.540;8.364;2022-10-16T08:01:19;2.30;;;2.10;;
12519;SDS011;6325;49.540;8.364;2022-10-16T08:03:46;1.65;;;1.60;;
12519;SDS011;6325;49.540;8.364;2022-10-16T08:06:15;1.70;;;1.60;;
12519;SDS011;6325;49.540;8.364;2022-10-16T08:08:42;2.22;;;1.80;;
12519;SDS011;6325;49.540;8.364;2022-10-16T08:11:09;1.63;;;1.60;;
12519;SDS011;6325;49.540;8.364;2022-10-16T08:13:36;2.60;;;1.95;;
12519;SDS011;6325;49.540;8.364;2022-10-16T08:16:05;1.98;;;1.80;;
12519;SDS011;6325;49.540;8.364;2022-10-16T08:18:33;2.83;;;1.90;;
12519;SDS011;6325;49.540;8.364;2022-10-16T08:21:01;3.60;;;2.22;;
12519;SDS011;6325;49.540;8.364;2022-10-16T08:23:29;2.95;;;1.83;;
12519;SDS011;6325;49.540;8.364;2022-10-16T08:26:01;1.90;;;1.80;;
12519;SDS011;6325;49.540;8.364;2022-10-16T08:28:29;1.70;;;1.60;;
12519;SDS011;6325;49.540;8.364;2022-10-16T08:30:56;2.10;;;1.90;;
12519;SDS011;6325;49.540;8.364;2022-10-16T08:33:31;8.52;;;5.00;;
12519;SDS011;6325;49.540;8.364;2022-10-16T08:35:59;6.95;;;4.97;;
12519;SDS011;6325;49.540;8.364;2022-10-16T08:38:26;4.10;;;3.65;;
12519;SDS011;6325;49.540;8.364;2022-10-16T08:40:53;8.67;;;4.17;;
12519;SDS011;6325;49.540;8.364;2022-10-16T08:43:35;7.85;;;4.00;;
12519;SDS011;6325;49.540;8.364;2022-10-16T08:46:18;4.18;;;2.20;;
12519;SDS011;6325;49.540;8.364;2022-10-16T08:48:54;2.25;;;1.88;;
12519;SDS011;6325;49.540;8.364;2022-10-16T08:51:23;1.90;;;1.80;;
12519;SDS011;6325;49.540;8.364;2022-10-16T08:53:53;4.88;;;2.30;;
12519;SDS011;6325;49.540;8.364;2022-10-16T08:56:22;3.42;;;2.47;;
12519;SDS011;6325;49.540;8.364;2022-10-16T08:58:50;2.20;;;2.00;;
12519;SDS011;6325;49.540;8.364;2022-10-16T09:01:21;2.10;;;2.00;;
12519;SDS011;6325;49.540;8.364;2022-10-16T09:04:00;1.90;;;1.80;;
12519;SDS011;6325;49.540;8.364;2022-10-16T09:06:45;1.83;;;1.73;;
12519;SDS011;6325;49.540;8.364;2022-10-16T09:12:08;1.90;;;1.80;;
12519;SDS011;6325;49.540;8.364;2022-10-16T09:14:42;2.13;;;1.98;;
12519;SDS011;6325;49.540;8.364;2022-10-16T09:20:27;1.80;;;1.70;;
12519;SDS011;6325;49.540;8.364;2022-10-16T09:23:12;1.60;;;1.50;;
12519;SDS011;6325;49.540;8.364;2022-10-16T09:25:45;2.00;;;1.77;;
12519;SDS011;6325;49.540;8.364;2022-10-16T09:28:28;1.95;;;1.85;;
12519;SDS011;6325;49.540;8.364;2022-10-16T09:31:13;1.83;;;1.73;;
12519;SDS011;6325;49.540;8.364;2022-10-16T09:34:02;2.10;;;1.60;;
12519;SDS011;6325;49.540;8.364;2022-10-16T09:36:36;1.70;;;1.60;;
12519;SDS011;6325;49.540;8.364;2022-10-16T09:39:12;1.70;;;1.60;;
12519;SDS011;6325;49.540;8.364;2022-10-16T09:41:47;2.10;;;1.90;;
12519;SDS011;6325;49.540;8.364;2022-10-16T09:44:19;2.42;;;2.25;;
12519;SDS011;6325;49.540;8.364;2022-10-16T09:47:00;2.23;;;2.03;;
12519;SDS011;6325;49.540;8.364;2022-10-16T09:49:37;1.83;;;1.73;;
12519;SDS011;6325;49.540;8.364;2022-10-16T09:52:18;1.77;;;1.67;;
12519;SDS011;6325;49.540;8.364;2022-10-16T09:54:49;2.78;;;2.15;;
12519;SDS011;6325;49.540;8.364;2022-10-16T09:57:23;3.03;;;2.13;;
12519;SDS011;6325;49.540;8.364;2022-10-16T09:59:53;1.65;;;1.55;;
12519;SDS011;6325;49.540;8.364;2022-10-16T10:02:29;1.90;;;1.80;;
12519;SDS011;6325;49.540;8.364;2022-10-16T10:05:03;1.75;;;1.65;;
12519;SDS011;6325;49.540;8.364;2022-10-16T10:07:46;1.73;;;1.63;;
12519;SDS011;6325;49.540;8.364;2022-10-16T10:10:24;2.15;;;1.90;;
12519;SDS011;6325;49.540;8.364;2022-10-16T10:12:59;4.30;;;2.30;;
12519;SDS011;6325;49.540;8.364;2022-10-16T10:15:33;2.50;;;2.20;;
12519;SDS011;6325;49.540;8.364;2022-10-16T10:18:16;2.72;;;2.15;;
12519;SDS011;6325;49.540;8.364;2022-10-16T10:21:04;2.03;;;1.92;;
12519;SDS011;6325;49.540;8.364;2022-10-16T10:23:43;2.60;;;2.08;;
12519;SDS011;6325;49.540;8.364;2022-10-16T10:26:39;2.90;;;2.10;;
12519;SDS011;6325;49.540;8.364;2022-10-16T10:29:27;2.07;;;1.90;;
12519;SDS011;6325;49.540;8.364;2022-10-16T10:32:28;1.77;;;1.67;;
12519;SDS011;6325;49.540;8.364;2022-10-16T10:38:41;1.67;;;1.58;;
12519;SDS011;6325;49.540;8.364;2022-10-16T10:41:39;2.00;;;1.90;;
12519;SDS011;6325;49.540;8.364;2022-10-16T10:44:59;2.30;;;1.90;;
12519;SDS011;6325;49.540;8.364;2022-10-16T10:48:02;1.90;;;1.80;;
12519;SDS011;6325;49.540;8.364;2022-10-16T10:50:55;4.88;;;2.08;;
12519;SDS011;6325;49.540;8.364;2022-10-16T10:56:57;2.40;;;1.67;;
12519;SDS011;6325;49.540;8.364;2022-10-16T11:00:03;2.00;;;1.63;;
12519;SDS011;6325;49.540;8.364;2022-10-16T11:37:32;1.40;;;1.38;;
12519;SDS011;6325;49.540;8.364;2022-10-16T11:43:31;1.70;;;1.60;;
12519;SDS011;6325;49.540;8.364;2022-10-16T11:46:10;1.48;;;1.38;;
12519;SDS011;6325;49.540;8.364;2022-10-16T11:48:48;1.52;;;1.40;;
12519;SDS011;6325;49.540;8.364;2022-10-16T11:51:24;1.40;;;1.38;;
12519;SDS011;6325;49.540;8.364;2022-10-16T11:54:07;1.25;;;1.20;;
12519;SDS011;6325;49.540;8.364;2022-10-16T11:56:43;1.30;;;1.20;;
12519;SDS011;6325;49.540;8.364;2022-10-16T11:59:14;1.60;;;1.50;;
12519;SDS011;6325;49.540;8.364;2022-10-16T12:01:49;1.40;;;1.30;;
12519;SDS011;6325;49.540;8.364;2022-10-16T12:04:22;1.70;;;1.20;;
12519;SDS011;6325;49.540;8.364;2022-10-16T12:06:59;1.23;;;1.15;;
12519;SDS011;6325;49.540;8.364;2022-10-16T12:09:32;1.30;;;1.20;;
12519;SDS011;6325;49.540;8.364;2022-10-16T12:12:22;1.60;;;1.42;;
12519;SDS011;6325;49.540;8.364;2022-10-16T12:14:59;2.80;;;1.67;;
12519;SDS011;6325;49.540;8.364;2022-10-16T12:17:33;1.10;;;1.10;;
12519;SDS011;6325;49.540;8.364;2022-10-16T12:20:14;1.30;;;1.20;;
12519;SDS011;6325;49.540;8.364;2022-10-16T12:22:52;1.23;;;1.20;;
12519;SDS011;6325;49.540;8.364;2022-10-16T12:25:23;1.10;;;1.10;;
12519;SDS011;6325;49.540;8.364;2022-10-16T12:27:56;1.25;;;1.20;;
12519;SDS011;6325;49.540;8.364;2022-10-16T12:30:26;1.15;;;1.15;;
12519;SDS011;6325;49.540;8.364;2022-10-16T12:32:58;1.25;;;1.25;;
12519;SDS011;6325;49.540;8.364;2022-10-16T12:35:29;1.15;;;1.15;;
12519;SDS011;6325;49.540;8.364;2022-10-16T12:38:06;1.60;;;1.50;;
12519;SDS011;6325;49.540;8.364;2022-10-16T12:40:38;1.47;;;1.30;;
12519;SDS011;6325;49.540;8.364;2022-10-16T12:43:12;1.35;;;1.35;;
12519;SDS011;6325;49.540;8.364;2022-10-16T12:45:58;1.40;;;1.40;;
12519;SDS011;6325;49.540;8.364;2022-10-16T12:48:30;1.65;;;1.55;;
12519;SDS011;6325;49.540;8.364;2022-10-16T12:50:57;1.10;;;1.10;;
12519;SDS011;6325;49.540;8.364;2022-10-16T12:53:36;1.30;;;1.20;;
12519;SDS011;6325;49.540;8.364;2022-10-16T12:56:08;1.20;;;1.20;;
12519;SDS011;6325;49.540;8.364;2022-10-16T12:58:48;1.40;;;1.30;;
12519;SDS011;6325;49.540;8.364;2022-10-16T13:01:32;1.20;;;1.20;;
12519;SDS011;6325;49.540;8.364;2022-10-16T13:04:19;1.10;;;1.10;;
12519;SDS011;6325;49.540;8.364;2022-10-16T13:06:59;1.20;;;1.20;;
12519;SDS011;6325;49.540;8.364;2022-10-16T13:09:39;1.30;;;1.30;;
12519;SDS011;6325;49.540;8.364;2022-10-16T13:12:23;1.30;;;1.20;;
12519;SDS011;6325;49.540;8.364;2022-10-16T13:15:19;1.40;;;1.40;;
12519;SDS011;6325;49.540;8.364;2022-10-16T13:17:57;1.58;;;1.48;;
12519;SDS011;6325;49.540;8.364;2022-10-16T13:20:32;1.30;;;1.30;;
12519;SDS011;6325;49.540;8.364;2022-10-16T13:23:05;1.70;;;1.60;;
12519;SDS011;6325;49.540;8.364;2022-10-16T13:25:49;1.40;;;1.40;;
12519;SDS011;6325;49.540;8.364;2022-10-16T13:28:29;1.40;;;1.40;;
12519;SDS011;6325;49.540;8.364;2022-10-16T13:30:58;1.33;;;1.33;;
12519;SDS011;6325;49.540;8.364;2022-10-16T13:33:29;2.05;;;1.50;;
12519;SDS011;6325;49.540;8.364;2022-10-16T13:35:58;1.70;;;1.60;;
12519;SDS011;6325;49.540;8.364;2022-10-16T13:38:26;2.05;;;1.80;;
12519;SDS011;6325;49.540;8.364;2022-10-16T13:40:54;1.70;;;1.60;;
12519;SDS011;6325;49.540;8.364;2022-10-16T13:43:25;1.95;;;1.85;;
12519;SDS011;6325;49.540;8.364;2022-10-16T13:45:59;1.77;;;1.67;;
12519;SDS011;6325;49.540;8.364;2022-10-16T13:48:28;2.15;;;1.50;;
12519;SDS011;6325;49.540;8.364;2022-10-16T13:50:59;1.80;;;1.70;;
12519;SDS011;6325;49.540;8.364;2022-10-16T13:53:29;2.03;;;1.80;;
12519;SDS011;6325;49.540;8.364;2022-10-16T13:55:58;1.40;;;1.33;;
12519;SDS011;6325;49.540;8.364;2022-10-16T13:58:26;1.70;;;1.60;;
12519;SDS011;6325;49.540;8.364;2022-10-16T14:00:57;1.80;;;1.70;;
12519;SDS011;6325;49.540;8.364;2022-10-16T14:03:26;1.70;;;1.60;;
12519;SDS011;6325;49.540;8.364;2022-10-16T14:05:56;1.80;;;1.70;;
12519;SDS011;6325;49.540;8.364;2022-10-16T14:08:26;1.60;;;1.50;;
12519;SDS011;6325;49.540;8.364;2022-10-16T14:10:55;1.70;;;1.60;;
12519;SDS011;6325;49.540;8.364;2022-10-16T14:13:29;1.80;;;1.70;;
12519;SDS011;6325;49.540;8.364;2022-10-16T14:16:00;1.60;;;1.60;;
12519;SDS011;6325;49.540;8.364;2022-10-16T14:18:32;1.90;;;1.70;;
12519;SDS011;6325;49.540;8.364;2022-10-16T14:21:02;1.70;;;1.60;;
12519;SDS011;6325;49.540;8.364;2022-10-16T14:23:31;1.85;;;1.70;;
12519;SDS011;6325;49.540;8.364;2022-10-16T14:26:06;2.00;;;1.90;;
12519;SDS011;6325;49.540;8.364;2022-10-16T14:28:39;1.50;;;1.50;;
12519;SDS011;6325;49.540;8.364;2022-10-16T14:34:01;1.73;;;1.58;;
12519;SDS011;6325;49.540;8.364;2022-10-16T14:36:31;1.70;;;1.60;;
12519;SDS011;6325;49.540;8.364;2022-10-16T14:39:02;1.65;;;1.40;;
12519;SDS011;6325;49.540;8.364;2022-10-16T14:41:31;1.55;;;1.45;;
12519;SDS011;6325;49.540;8.364;2022-10-16T14:44:02;1.60;;;1.50;;
12519;SDS011;6325;49.540;8.364;2022-10-16T14:46:33;1.40;;;1.30;;
12519;SDS011;6325;49.540;8.364;2022-10-16T14:49:04;1.38;;;1.38;;
12519;SDS011;6325;49.540;8.364;2022-10-16T14:51:41;1.30;;;1.30;;
12519;SDS011;6325;49.540;8.364;2022-10-16T14:54:10;1.40;;;1.30;;
12519;SDS011;6325;49.540;8.364;2022-10-16T14:56:42;1.75;;;1.55;;
12519;SDS011;6325;49.540;8.364;2022-10-16T14:59:13;1.65;;;1.55;;
12519;SDS011;6325;49.540;8.364;2022-10-16T15:01:44;1.60;;;1.50;;
12519;SDS011;6325;49.540;8.364;2022-10-16T15:04:13;1.67;;;1.58;;
12519;SDS011;6325;49.540;8.364;2022-10-16T15:06:40;1.63;;;1.50;;
12519;SDS011;6325;49.540;8.364;2022-10-16T15:09:08;1.77;;;1.67;;
12519;SDS011;6325;49.540;8.364;2022-10-16T15:11:35;1.90;;;1.70;;
12519;SDS011;6325;49.540;8.364;2022-10-16T15:14:03;1.60;;;1.50;;
12519;SDS011;6325;49.540;8.364;2022-10-16T15:16:31;2.03;;;1.60;;
12519;SDS011;6325;49.540;8.364;2022-10-16T15:18:59;1.40;;;1.38;;
12519;SDS011;6325;49.540;8.364;2022-10-16T15:21:27;2.10;;;1.60;;
12519;SDS011;6325;49.540;8.364;2022-10-16T15:23:55;2.05;;;1.70;;
12519;SDS011;6325;49.540;8.364;2022-10-16T15:26:24;2.20;;;1.80;;
12519;SDS011;6325;49.540;8.364;2022-10-16T15:28:54;3.33;;;1.73;;
12519;SDS011;6325;49.540;8.364;2022-10-16T15:31:23;1.67;;;1.50;;
12519;SDS011;6325;49.540;8.364;2022-10-16T15:33:50;1.70;;;1.60;;
12519;SDS011;6325;49.540;8.364;2022-10-16T15:36:26;1.60;;;1.50;;
12519;SDS011;6325;49.540;8.364;2022-10-16T15:38:54;1.52;;;1.50;;
12519;SDS011;6325;49.540;8.364;2022-10-16T15:41:21;1.60;;;1.50;;
12519;SDS011;6325;49.540;8.364;2022-10-16T15:43:49;1.40;;;1.40;;
12519;SDS011;6325;49.540;8.364;2022-10-16T15:46:17;2.00;;;1.30;;
12519;SDS011;6325;49.540;8.364;2022-10-16T15:48:46;1.58;;;1.48;;
12519;SDS011;6325;49.540;8.364;2022-10-16T15:51:13;1.63;;;1.50;;
12519;SDS011;6325;49.540;8.364;2022-10-16T15:53:42;1.60;;;1.50;;
12519;SDS011;6325;49.540;8.364;2022-10-16T15:56:11;1.50;;;1.40;;
12519;SDS011;6325;49.540;8.364;2022-10-16T15:58:39;1.40;;;1.30;;
12519;SDS011;6325;49.540;8.364;2022-10-16T16:01:06;2.10;;;1.50;;
12519;SDS011;6325;49.540;8.364;2022-10-16T16:03:35;1.52;;;1.38;;
12519;SDS011;6325;49.540;8.364;2022-10-16T16:06:04;1.70;;;1.40;;
12519;SDS011;6325;49.540;8.364;2022-10-16T16:08:32;1.50;;;1.50;;
12519;SDS011;6325;49.540;8.364;2022-10-16T16:11:02;1.60;;;1.50;;
12519;SDS011;6325;49.540;8.364;2022-10-16T16:13:32;1.60;;;1.50;;
12519;SDS011;6325;49.540;8.364;2022-10-16T16:15:59;1.50;;;1.40;;
12519;SDS011;6325;49.540;8.364;2022-10-16T16:18:26;1.63;;;1.55;;